Terminal Aerodrome Forecast
Issued by NWS

Home | Current Version | Previous Version | Text Only | Print | Product List | Glossary On
Versions: 1 2 3 4 5 6 7 8 9 10 11 12 13
000
FTUS45 KTFX 211131
TAFCTB
TAF
KCTB 211131Z 2112/2212 28012KT P6SM FEW200
     FM212100 23017KT P6SM SCT090 BKN200
     FM221100 24023G37KT P6SM BKN110 WS015/25045KT=

USA.gov is the U.S. government's official web portal to all federal, state and local government web resources and services.